Nassauborg — PHDU — position and weather

sailwx.info

Track history (hours):
 
Tides and Currents Weather Stations Pressure Air Temp Water Temp Dewpoint Dewpoint Depression Visibility Wind Speed Wind Dir Waves Ship Positions

Nassauborg

Ship's website: http://www.wagenborg.com/index.cfm?pid=37&itemid=158&contentitemid=236

Last reported at 2015-Jul-29 15:32 UTC. Time now 2015-Jul-29 15:56 UTC.
Position N 52°15' E 003°47'.

Length 143 m; beam 22 m.

Type: Cargo ship. MMSI: 246430000.

Date/timePositionNaut miles runAvg speedWind from/ knotsBaromVisibWave heightAir tempDewpointWater temp
2015-Jul-29 15:32N 52°15' E 003°47'1110.5
2015-Jul-29 14:31N 52°26' E 003°50'9 9.9
2015-Jul-29 13:33N 52°35' E 003°53'9 9.3
2015-Jul-29 12:33N 52°44' E 003°56'4410.2
2015-Jul-29 08:11N 53°23' E 004°32'4111.0
2015-Jul-29 04:27N 54°01' E 004°56'2510.8
2015-Jul-29 02:08N 54°23' E 005°18'711.2
2015-Jul-29 01:32N 54°29' E 005°24'1111.3
2015-Jul-29 00:32N 54°38' E 005°34'24811.1
2015-Jul-28 02:17N 57°48' E 010°20'1012.1
2015-Jul-28 01:27N 57°48' E 010°39'1011.5
2015-Jul-28 00:33N 57°43' E 010°57'1212.4
2015-Jul-27 23:33N 57°35' E 011°13'1212.2
2015-Jul-27 22:33N 57°25' E 011°28'1212.2
2015-Jul-27 21:33N 57°14' E 011°35'1312.7
2015-Jul-27 20:33N 57°02' E 011°43'1212.2
2015-Jul-27 19:33N 56°50' E 011°50'1111.2
2015-Jul-27 18:33N 56°39' E 011°47'12211.1
2015-Jul-27 07:33N 54°41' E 010°56'1211.9
2015-Jul-27 06:33N 54°35' E 011°14'1211.7
2015-Jul-27 05:33N 54°31' E 011°32'1111.3
2015-Jul-27 04:33N 54°27' E 011°50'1110.9
2015-Jul-27 03:33N 54°27' E 012°09'1310.5
2015-Jul-27 02:20N 54°38' E 012°18'3611.9
2015-Jul-26 23:20N 54°54' E 013°14'1412.2
2015-Jul-26 22:13N 54°58' E 013°36'811.7
2015-Jul-26 21:33N 55°01' E 013°49'1111.0
2015-Jul-26 20:33N 55°05' E 014°07'1111.4
2015-Jul-26 19:33N 55°14' E 014°19'1111.2
2015-Jul-26 18:33N 55°23' E 014°32'1110.9
2015-Jul-26 17:33N 55°29' E 014°47'1110.8
2015-Jul-26 16:33N 55°35' E 015°03'1210.5
2015-Jul-26 15:26N 55°41' E 015°21'100 9.9
2015-Jul-26 05:25N 56°57' E 017°18'1010.9
2015-Jul-26 04:32N 57°06' E 017°25'1111.0
2015-Jul-26 03:31N 57°16' E 017°33'19811.0
2015-Jul-25 09:32N 59°25' E 022°19'3311.0
2015-Jul-25 06:32N 59°37' E 023°19'1111.0
2015-Jul-25 05:30N 59°40' E 023°40'3410.8
2015-Jul-25 02:20N 59°49' E 024°46'1310.6
2015-Jul-25 01:08N 59°52' E 025°11'3910.5
2015-Jul-24 21:23N 60°00' E 026°28'810.0
2015-Jul-24 20:34N 60°01' E 026°44'14 9.5
2015-Jul-24 19:05N 60°02' E 027°12'77 9.0
2015-Jul-24 10:33N 59°59' E 029°45'1010.2
2015-Jul-24 09:33N 59°55' E 030°04'5 5.2
2015-Jul-24 08:33N 59°55' E 030°14'0 0.2
2015-Jul-24 07:32N 59°55' E 030°14'0 0.0
2015-Jul-24 06:32N 59°55' E 030°14'0 0.0
2015-Jul-24 05:31N 59°55' E 030°14'0 0.0
2015-Jul-24 04:31N 59°55' E 030°14'0 0.0
2015-Jul-24 03:31N 59°55' E 030°14'0 0.0
2015-Jul-24 02:33N 59°55' E 030°14'0 0.0
2015-Jul-24 01:33N 59°55' E 030°14'0 0.0
2015-Jul-24 00:32N 59°55' E 030°14'0 0.0
2015-Jul-23 23:32N 59°55' E 030°14'0 0.0
2015-Jul-23 22:31N 59°55' E 030°14'0 0.0
2015-Jul-23 21:31N 59°55' E 030°14'0 0.0
2015-Jul-23 20:27N 59°55' E 030°14'0 0.0
2015-Jul-23 19:30N 59°55' E 030°14'0 0.0
2015-Jul-23 18:33N 59°55' E 030°14'0 0.0
2015-Jul-23 17:32N 59°55' E 030°14'0 0.0
2015-Jul-23 16:29N 59°55' E 030°14'0 0.0
2015-Jul-23 15:31N 59°55' E 030°14'0 0.0
2015-Jul-23 14:31N 59°55' E 030°14'0 0.0
2015-Jul-23 13:34N 59°55' E 030°14'0 0.0
2015-Jul-23 12:33N 59°55' E 030°14'0 0.0
2015-Jul-23 11:33N 59°55' E 030°14'0 0.0
2015-Jul-23 10:32N 59°55' E 030°14'0 0.0
2015-Jul-23 09:32N 59°55' E 030°14'0 0.0
2015-Jul-23 08:28N 59°55' E 030°14'0 0.0
2015-Jul-23 07:31N 59°55' E 030°14'0 0.0
2015-Jul-23 06:33N 59°55' E 030°14'0 0.0
2015-Jul-23 05:30N 59°55' E 030°14'0 0.0
2015-Jul-23 04:33N 59°55' E 030°14'0 0.0
2015-Jul-23 03:32N 59°55' E 030°14'0 0.0
2015-Jul-23 02:32N 59°55' E 030°14'0 0.0
2015-Jul-23 01:31N 59°55' E 030°14'0 0.0
2015-Jul-23 00:31N 59°55' E 030°14'0 0.0
2015-Jul-22 23:33N 59°55' E 030°14'0 0.0
2015-Jul-22 22:33N 59°55' E 030°14'0 0.0
2015-Jul-22 21:33N 59°55' E 030°14'0 0.0
2015-Jul-22 20:32N 59°55' E 030°14'0 0.0
2015-Jul-22 19:32N 59°55' E 030°14'0 0.0
2015-Jul-22 18:31N 59°55' E 030°14'0 0.0
2015-Jul-22 17:31N 59°55' E 030°14'0 0.0
2015-Jul-22 16:30N 59°55' E 030°14'0 0.0
2015-Jul-22 15:33N 59°55' E 030°14'0 0.0
2015-Jul-22 14:33N 59°55' E 030°14'0 0.0
2015-Jul-22 13:32N 59°55' E 030°14'0 0.0
2015-Jul-22 12:29N 59°55' E 030°14'0 0.0
2015-Jul-22 11:31N 59°55' E 030°14'0 0.0
2015-Jul-22 10:31N 59°55' E 030°14'0 0.0
2015-Jul-22 09:33N 59°55' E 030°14'0 0.0
2015-Jul-22 08:33N 59°55' E 030°14'0 0.0
2015-Jul-22 07:30N 59°55' E 030°14'0 0.0
2015-Jul-22 06:32N 59°55' E 030°14'0 0.0
2015-Jul-22 05:29N 59°55' E 030°14'0 0.0
2015-Jul-22 04:31N 59°55' E 030°14'0 0.0
2015-Jul-22 03:31N 59°55' E 030°14'0 0.0
2015-Jul-22 02:33N 59°55' E 030°14'0 0.0
2015-Jul-22 01:33N 59°55' E 030°14'0 0.0
2015-Jul-22 00:33N 59°55' E 030°14'0 0.0
2015-Jul-21 23:32N 59°55' E 030°14'0 0.0
2015-Jul-21 22:32N 59°55' E 030°14'0 0.0
2015-Jul-21 21:31N 59°55' E 030°14'0 0.0
2015-Jul-21 20:31N 59°55' E 030°14'0 0.0
2015-Jul-21 19:33N 59°55' E 030°14'0 0.0
2015-Jul-21 18:33N 59°55' E 030°14'0 0.0
2015-Jul-21 17:33N 59°55' E 030°14'0 0.0
2015-Jul-21 16:32N 59°55' E 030°14'0 0.0
2015-Jul-21 15:32N 59°55' E 030°14'0 0.0
2015-Jul-21 14:31N 59°55' E 030°14'0 0.0
2015-Jul-21 13:31N 59°55' E 030°14'0 0.0
2015-Jul-21 12:33N 59°55' E 030°14'0 0.0
2015-Jul-21 11:33N 59°55' E 030°14'0 0.0
2015-Jul-21 10:33N 59°55' E 030°14'0 0.0
2015-Jul-21 09:32N 59°55' E 030°14'0 0.0
2015-Jul-21 08:32N 59°55' E 030°14'0 0.0
2015-Jul-21 07:31N 59°55' E 030°14'0 0.0
2015-Jul-21 06:31N 59°55' E 030°14'0 0.0
2015-Jul-21 05:33N 59°55' E 030°14'0 0.0
2015-Jul-21 04:33N 59°55' E 030°14'0 0.0
2015-Jul-21 03:32N 59°55' E 030°14'0 0.0
2015-Jul-21 02:32N 59°55' E 030°14'0 0.0
2015-Jul-21 01:26N 59°55' E 030°14'0 0.0
2015-Jul-21 00:31N 59°55' E 030°14'0 0.0
2015-Jul-20 23:31N 59°55' E 030°14'0 0.0
2015-Jul-20 22:33N 59°55' E 030°14'0 0.0
2015-Jul-20 21:33N 59°55' E 030°14'0 0.0
2015-Jul-20 20:32N 59°55' E 030°14'0 0.0
2015-Jul-20 19:32N 59°55' E 030°14'0 0.0
2015-Jul-20 18:32N 59°55' E 030°14'0 0.0
2015-Jul-20 17:31N 59°55' E 030°14'0 0.0
2015-Jul-20 16:31N 59°55' E 030°14'2 1.6
2015-Jul-20 15:33N 59°54' E 030°13'8 7.6
2015-Jul-20 14:33N 59°56' E 029°58'88 6.2
2015-Jul-20 00:22N 59°58' E 027°02'1011.2
2015-Jul-19 23:28N 59°59' E 026°43'1211.1
2015-Jul-19 22:21N 59°56' E 026°19'4211.0
2015-Jul-19 18:33N 59°47' E 024°58'1110.9
2015-Jul-19 17:33N 59°44' E 024°36'  
Track history (hours):
 
Tides and Currents Weather Stations Pressure Air Temp Water Temp Dewpoint Dewpoint Depression Visibility Wind Speed Wind Dir Waves Ship Positions

Nassauborg

Ship's website: http://www.wagenborg.com/index.cfm?pid=37&itemid=158&contentitemid=236

Last reported at 2015-Jul-29 15:32 UTC. Time now 2015-Jul-29 15:56 UTC.
Position N 52°15' E 003°47'.

Length 143 m; beam 22 m.

Type: Cargo ship. MMSI: 246430000.

Date/timePositionNaut miles runAvg speedWind from/ knotsBaromVisibWave heightAir tempDewpointWater temp
2015-Jul-29 15:32N 52°15' E 003°47'1110.5
2015-Jul-29 14:31N 52°26' E 003°50'9 9.9
2015-Jul-29 13:33N 52°35' E 003°53'9 9.3
2015-Jul-29 12:33N 52°44' E 003°56'4410.2
2015-Jul-29 08:11N 53°23' E 004°32'4111.0
2015-Jul-29 04:27N 54°01' E 004°56'2510.8
2015-Jul-29 02:08N 54°23' E 005°18'711.2
2015-Jul-29 01:32N 54°29' E 005°24'1111.3
2015-Jul-29 00:32N 54°38' E 005°34'24811.1
2015-Jul-28 02:17N 57°48' E 010°20'1012.1
2015-Jul-28 01:27N 57°48' E 010°39'1011.5
2015-Jul-28 00:33N 57°43' E 010°57'1212.4
2015-Jul-27 23:33N 57°35' E 011°13'1212.2
2015-Jul-27 22:33N 57°25' E 011°28'1212.2
2015-Jul-27 21:33N 57°14' E 011°35'1312.7
2015-Jul-27 20:33N 57°02' E 011°43'1212.2
2015-Jul-27 19:33N 56°50' E 011°50'1111.2
2015-Jul-27 18:33N 56°39' E 011°47'12211.1
2015-Jul-27 07:33N 54°41' E 010°56'1211.9
2015-Jul-27 06:33N 54°35' E 011°14'1211.7
2015-Jul-27 05:33N 54°31' E 011°32'1111.3
2015-Jul-27 04:33N 54°27' E 011°50'1110.9
2015-Jul-27 03:33N 54°27' E 012°09'1310.5
2015-Jul-27 02:20N 54°38' E 012°18'3611.9
2015-Jul-26 23:20N 54°54' E 013°14'1412.2
2015-Jul-26 22:13N 54°58' E 013°36'811.7
2015-Jul-26 21:33N 55°01' E 013°49'1111.0
2015-Jul-26 20:33N 55°05' E 014°07'1111.4
2015-Jul-26 19:33N 55°14' E 014°19'1111.2
2015-Jul-26 18:33N 55°23' E 014°32'1110.9
2015-Jul-26 17:33N 55°29' E 014°47'1110.8
2015-Jul-26 16:33N 55°35' E 015°03'1210.5
2015-Jul-26 15:26N 55°41' E 015°21'100 9.9
2015-Jul-26 05:25N 56°57' E 017°18'1010.9
2015-Jul-26 04:32N 57°06' E 017°25'1111.0
2015-Jul-26 03:31N 57°16' E 017°33'19811.0
2015-Jul-25 09:32N 59°25' E 022°19'3311.0
2015-Jul-25 06:32N 59°37' E 023°19'1111.0
2015-Jul-25 05:30N 59°40' E 023°40'3410.8
2015-Jul-25 02:20N 59°49' E 024°46'1310.6
2015-Jul-25 01:08N 59°52' E 025°11'3910.5
2015-Jul-24 21:23N 60°00' E 026°28'810.0
2015-Jul-24 20:34N 60°01' E 026°44'14 9.5
2015-Jul-24 19:05N 60°02' E 027°12'77 9.0
2015-Jul-24 10:33N 59°59' E 029°45'1010.2
2015-Jul-24 09:33N 59°55' E 030°04'5 5.2
2015-Jul-24 08:33N 59°55' E 030°14'0 0.2
2015-Jul-24 07:32N 59°55' E 030°14'0 0.0
2015-Jul-24 06:32N 59°55' E 030°14'0 0.0
2015-Jul-24 05:31N 59°55' E 030°14'0 0.0
2015-Jul-24 04:31N 59°55' E 030°14'0 0.0
2015-Jul-24 03:31N 59°55' E 030°14'0 0.0
2015-Jul-24 02:33N 59°55' E 030°14'0 0.0
2015-Jul-24 01:33N 59°55' E 030°14'0 0.0
2015-Jul-24 00:32N 59°55' E 030°14'0 0.0
2015-Jul-23 23:32N 59°55' E 030°14'0 0.0
2015-Jul-23 22:31N 59°55' E 030°14'0 0.0
2015-Jul-23 21:31N 59°55' E 030°14'0 0.0
2015-Jul-23 20:27N 59°55' E 030°14'0 0.0
2015-Jul-23 19:30N 59°55' E 030°14'0 0.0
2015-Jul-23 18:33N 59°55' E 030°14'0 0.0
2015-Jul-23 17:32N 59°55' E 030°14'0 0.0
2015-Jul-23 16:29N 59°55' E 030°14'0 0.0
2015-Jul-23 15:31N 59°55' E 030°14'0 0.0
2015-Jul-23 14:31N 59°55' E 030°14'0 0.0
2015-Jul-23 13:34N 59°55' E 030°14'0 0.0
2015-Jul-23 12:33N 59°55' E 030°14'0 0.0
2015-Jul-23 11:33N 59°55' E 030°14'0 0.0
2015-Jul-23 10:32N 59°55' E 030°14'0 0.0
2015-Jul-23 09:32N 59°55' E 030°14'0 0.0
2015-Jul-23 08:28N 59°55' E 030°14'0 0.0
2015-Jul-23 07:31N 59°55' E 030°14'0 0.0
2015-Jul-23 06:33N 59°55' E 030°14'0 0.0
2015-Jul-23 05:30N 59°55' E 030°14'0 0.0
2015-Jul-23 04:33N 59°55' E 030°14'0 0.0
2015-Jul-23 03:32N 59°55' E 030°14'0 0.0
2015-Jul-23 02:32N 59°55' E 030°14'0 0.0
2015-Jul-23 01:31N 59°55' E 030°14'0 0.0
2015-Jul-23 00:31N 59°55' E 030°14'0 0.0
2015-Jul-22 23:33N 59°55' E 030°14'0 0.0
2015-Jul-22 22:33N 59°55' E 030°14'0 0.0
2015-Jul-22 21:33N 59°55' E 030°14'0 0.0
2015-Jul-22 20:32N 59°55' E 030°14'0 0.0
2015-Jul-22 19:32N 59°55' E 030°14'0 0.0
2015-Jul-22 18:31N 59°55' E 030°14'0 0.0
2015-Jul-22 17:31N 59°55' E 030°14'0 0.0
2015-Jul-22 16:30N 59°55' E 030°14'0 0.0
2015-Jul-22 15:33N 59°55' E 030°14'0 0.0
2015-Jul-22 14:33N 59°55' E 030°14'0 0.0
2015-Jul-22 13:32N 59°55' E 030°14'0 0.0
2015-Jul-22 12:29N 59°55' E 030°14'0 0.0
2015-Jul-22 11:31N 59°55' E 030°14'0 0.0
2015-Jul-22 10:31N 59°55' E 030°14'0 0.0
2015-Jul-22 09:33N 59°55' E 030°14'0 0.0
2015-Jul-22 08:33N 59°55' E 030°14'0 0.0
2015-Jul-22 07:30N 59°55' E 030°14'0 0.0
2015-Jul-22 06:32N 59°55' E 030°14'0 0.0
2015-Jul-22 05:29N 59°55' E 030°14'0 0.0
2015-Jul-22 04:31N 59°55' E 030°14'0 0.0
2015-Jul-22 03:31N 59°55' E 030°14'0 0.0
2015-Jul-22 02:33N 59°55' E 030°14'0 0.0
2015-Jul-22 01:33N 59°55' E 030°14'0 0.0
2015-Jul-22 00:33N 59°55' E 030°14'0 0.0
2015-Jul-21 23:32N 59°55' E 030°14'0 0.0
2015-Jul-21 22:32N 59°55' E 030°14'0 0.0
2015-Jul-21 21:31N 59°55' E 030°14'0 0.0
2015-Jul-21 20:31N 59°55' E 030°14'0 0.0
2015-Jul-21 19:33N 59°55' E 030°14'0 0.0
2015-Jul-21 18:33N 59°55' E 030°14'0 0.0
2015-Jul-21 17:33N 59°55' E 030°14'0 0.0
2015-Jul-21 16:32N 59°55' E 030°14'0 0.0
2015-Jul-21 15:32N 59°55' E 030°14'0 0.0
2015-Jul-21 14:31N 59°55' E 030°14'0 0.0
2015-Jul-21 13:31N 59°55' E 030°14'0 0.0
2015-Jul-21 12:33N 59°55' E 030°14'0 0.0
2015-Jul-21 11:33N 59°55' E 030°14'0 0.0
2015-Jul-21 10:33N 59°55' E 030°14'0 0.0
2015-Jul-21 09:32N 59°55' E 030°14'0 0.0
2015-Jul-21 08:32N 59°55' E 030°14'0 0.0
2015-Jul-21 07:31N 59°55' E 030°14'0 0.0
2015-Jul-21 06:31N 59°55' E 030°14'0 0.0
2015-Jul-21 05:33N 59°55' E 030°14'0 0.0
2015-Jul-21 04:33N 59°55' E 030°14'0 0.0
2015-Jul-21 03:32N 59°55' E 030°14'0 0.0
2015-Jul-21 02:32N 59°55' E 030°14'0 0.0
2015-Jul-21 01:26N 59°55' E 030°14'0 0.0
2015-Jul-21 00:31N 59°55' E 030°14'0 0.0
2015-Jul-20 23:31N 59°55' E 030°14'0 0.0
2015-Jul-20 22:33N 59°55' E 030°14'0 0.0
2015-Jul-20 21:33N 59°55' E 030°14'0 0.0
2015-Jul-20 20:32N 59°55' E 030°14'0 0.0
2015-Jul-20 19:32N 59°55' E 030°14'0 0.0
2015-Jul-20 18:32N 59°55' E 030°14'0 0.0
2015-Jul-20 17:31N 59°55' E 030°14'0 0.0
2015-Jul-20 16:31N 59°55' E 030°14'2 1.6
2015-Jul-20 15:33N 59°54' E 030°13'8 7.6
2015-Jul-20 14:33N 59°56' E 029°58'88 6.2
2015-Jul-20 00:22N 59°58' E 027°02'1011.2
2015-Jul-19 23:28N 59°59' E 026°43'1211.1
2015-Jul-19 22:21N 59°56' E 026°19'4211.0
2015-Jul-19 18:33N 59°47' E 024°58'1110.9
2015-Jul-19 17:33N 59°44' E 024°36'  

Dump ship's entire track history